ARG1241 SBGR-SAEZ
Flight info
| Callsign | ARG1241 |
|---|---|
| Flight time | N/A |
| Altitude | 34000 |
| Route | UBSOD UZ38 UMDEX DCT CXS DCT UMRUD UN741 PAPIX PAPIX7A |
| Aircraft | B737/M-SDE2E3FGHIRWXY/LB1 |
Departure
| Time | 2026-04-30 13:25 |
|---|---|
| Airport | São Paulo/Guarulhos–Governor André Franco Montoro International Airport (SBGR) |
Arrival
| Time | N/A |
|---|---|
| Airport | Ezeiza International Airport - Ministro Pistarini (SAEZ) |
| Time | Latitude | Longitude | Altitude | Speed | Heading |
|---|---|---|---|---|---|
| 2026-04-30 12:49 | -23.42845 | -46.47968 | 2467 ft | 0 kts | 271° |
| 2026-04-30 13:13 | -23.42846 | -46.47948 | 2466 ft | 2 kts | 269° |
| 2026-04-30 13:14 | -23.42846 | -46.47932 | 2466 ft | 2 kts | 271° |
| 2026-04-30 13:14 | -23.42846 | -46.47921 | 2466 ft | 2 kts | 269° |
| 2026-04-30 13:14 | -23.42835 | -46.47893 | 2466 ft | 2 kts | 221° |
| 2026-04-30 13:15 | -23.42822 | -46.47885 | 2466 ft | 2 kts | 198° |
| 2026-04-30 13:15 | -23.42802 | -46.47883 | 2466 ft | 1 kts | 168° |
| 2026-04-30 13:15 | -23.42799 | -46.47884 | 2466 ft | 0 kts | 171° |
| 2026-04-30 13:18 | -23.42828 | -46.47876 | 2466 ft | 5 kts | 164° |
| 2026-04-30 13:18 | -23.42878 | -46.47860 | 2466 ft | 9 kts | 166° |
| 2026-04-30 13:19 | -23.42933 | -46.47848 | 2466 ft | 11 kts | 169° |
| 2026-04-30 13:19 | -23.43005 | -46.47832 | 2466 ft | 12 kts | 168° |
| 2026-04-30 13:19 | -23.43055 | -46.47819 | 2466 ft | 9 kts | 167° |
| 2026-04-30 13:19 | -23.43099 | -46.47832 | 2466 ft | 9 kts | 220° |
| 2026-04-30 13:20 | -23.43134 | -46.47904 | 2466 ft | 13 kts | 252° |
| 2026-04-30 13:20 | -23.43158 | -46.48001 | 2466 ft | 16 kts | 251° |
| 2026-04-30 13:20 | -23.43198 | -46.48131 | 2466 ft | 19 kts | 253° |
| 2026-04-30 13:20 | -23.43225 | -46.48226 | 2466 ft | 12 kts | 252° |
| 2026-04-30 13:21 | -23.43242 | -46.48285 | 2466 ft | 4 kts | 252° |
| 2026-04-30 13:21 | -23.43242 | -46.48287 | 2466 ft | 0 kts | 252° |
| 2026-04-30 13:22 | -23.43255 | -46.48325 | 2466 ft | 5 kts | 245° |
| 2026-04-30 13:22 | -23.43274 | -46.48353 | 2466 ft | 0 kts | 223° |
| 2026-04-30 13:22 | -23.43317 | -46.48373 | 2466 ft | 13 kts | 184° |
| 2026-04-30 13:23 | -23.43386 | -46.48358 | 2466 ft | 11 kts | 165° |
| 2026-04-30 13:23 | -23.43420 | -46.48302 | 2466 ft | 0 kts | 76° |
| 2026-04-30 13:24 | -23.43397 | -46.48215 | 2467 ft | 43 kts | 73° |
| 2026-04-30 13:25 | -23.42955 | -46.46563 | 2616 ft | 159 kts | 73° |
| 2026-04-30 13:25 | -23.42470 | -46.44812 | 3670 ft | 162 kts | 71° |
| 2026-04-30 13:26 | -23.41279 | -46.40758 | 4740 ft | 233 kts | 72° |
| 2026-04-30 13:26 | -23.40276 | -46.37155 | 6092 ft | 266 kts | 78° |
| 2026-04-30 13:27 | -23.40819 | -46.33596 | 7660 ft | 282 kts | 110° |
| 2026-04-30 13:28 | -23.43116 | -46.27772 | 9204 ft | 301 kts | 128° |
| 2026-04-30 13:28 | -23.46689 | -46.25528 | 9475 ft | 317 kts | 168° |
| 2026-04-30 13:28 | -23.48844 | -46.25458 | 10582 ft | 312 kts | 189° |
| 2026-04-30 13:29 | -23.53150 | -46.26907 | 11741 ft | 339 kts | 212° |
| 2026-04-30 13:29 | -23.56051 | -46.30091 | 13204 ft | 341 kts | 245° |
| 2026-04-30 13:30 | -23.57877 | -46.37627 | 15745 ft | 348 kts | 259° |
| 2026-04-30 13:31 | -23.58941 | -46.42833 | 16192 ft | 355 kts | 260° |
| 2026-04-30 13:31 | -23.60330 | -46.49815 | 17953 ft | 360 kts | 260° |
| 2026-04-30 13:32 | -23.61259 | -46.55076 | 19466 ft | 364 kts | 264° |
| 2026-04-30 13:32 | -23.62011 | -46.60439 | 20863 ft | 369 kts | 263° |
| 2026-04-30 13:33 | -23.63174 | -46.65609 | 22090 ft | 379 kts | 251° |
| 2026-04-30 13:33 | -23.65441 | -46.70029 | 23188 ft | 388 kts | 240° |
| 2026-04-30 13:34 | -23.66929 | -46.72539 | 23797 ft | 391 kts | 241° |
| 2026-04-30 13:34 | -23.71198 | -46.79121 | 25317 ft | 405 kts | 228° |
| 2026-04-30 13:35 | -23.73492 | -46.80986 | 25850 ft | 415 kts | 215° |
| 2026-04-30 13:35 | -23.78439 | -46.84062 | 26871 ft | 420 kts | 215° |
| 2026-04-30 13:36 | -23.83534 | -46.87343 | 27867 ft | 425 kts | 215° |
| 2026-04-30 13:36 | -23.86110 | -46.88982 | 28344 ft | 428 kts | 215° |
| 2026-04-30 13:36 | -23.90782 | -46.91947 | 29173 ft | 432 kts | 215° |
| 2026-04-30 13:37 | -23.93313 | -46.93554 | 29608 ft | 434 kts | 215° |
| 2026-04-30 13:37 | -23.98506 | -46.96849 | 30454 ft | 438 kts | 215° |
| 2026-04-30 13:38 | -24.03504 | -47.00017 | 31252 ft | 441 kts | 215° |
| 2026-04-30 13:38 | -24.06170 | -47.01709 | 31661 ft | 443 kts | 215° |
| 2026-04-30 13:38 | -24.11521 | -47.05106 | 32420 ft | 446 kts | 215° |
| 2026-04-30 13:39 | -24.16908 | -47.08528 | 33086 ft | 450 kts | 215° |
| 2026-04-30 13:39 | -24.22268 | -47.11932 | 34131 ft | 443 kts | 215° |
| 2026-04-30 13:40 | -24.24908 | -47.13613 | 34218 ft | 447 kts | 215° |
| 2026-04-30 13:40 | -24.30045 | -47.17030 | 34209 ft | 441 kts | 218° |
| 2026-04-30 13:41 | -24.35180 | -47.20650 | 34209 ft | 439 kts | 218° |
| 2026-04-30 13:41 | -24.40310 | -47.24220 | 34209 ft | 440 kts | 218° |
| 2026-04-30 13:42 | -24.45475 | -47.27820 | 34209 ft | 441 kts | 218° |
| 2026-04-30 13:42 | -24.53228 | -47.33223 | 34209 ft | 440 kts | 218° |
| 2026-04-30 13:43 | -24.58379 | -47.36817 | 34209 ft | 440 kts | 218° |
| 2026-04-30 13:43 | -24.63554 | -47.40430 | 34209 ft | 440 kts | 218° |
| 2026-04-30 13:44 | -24.68714 | -47.44036 | 34191 ft | 441 kts | 218° |
| 2026-04-30 13:44 | -24.73866 | -47.47639 | 34185 ft | 440 kts | 218° |
| 2026-04-30 13:45 | -24.81571 | -47.53035 | 34209 ft | 440 kts | 218° |
| 2026-04-30 13:46 | -24.86732 | -47.56654 | 34209 ft | 441 kts | 218° |
| 2026-04-30 13:46 | -24.91894 | -47.60277 | 34209 ft | 440 kts | 218° |
| 2026-04-30 13:47 | -24.97037 | -47.63890 | 34208 ft | 440 kts | 218° |
| 2026-04-30 13:47 | -25.01897 | -47.67307 | 34199 ft | 440 kts | 219° |
| 2026-04-30 13:48 | -25.06975 | -47.70880 | 34197 ft | 439 kts | 219° |
| 2026-04-30 13:48 | -25.12128 | -47.74511 | 34202 ft | 438 kts | 220° |
| 2026-04-30 13:49 | -25.17080 | -47.78006 | 34188 ft | 439 kts | 220° |
| 2026-04-30 13:49 | -25.22191 | -47.81614 | 34171 ft | 439 kts | 220° |
| 2026-04-30 13:50 | -25.27322 | -47.85240 | 34162 ft | 439 kts | 220° |
| 2026-04-30 13:50 | -25.35039 | -47.90702 | 34157 ft | 439 kts | 220° |
| 2026-04-30 13:51 | -25.40148 | -47.94325 | 34145 ft | 439 kts | 220° |
| 2026-04-30 13:51 | -25.45278 | -47.97966 | 34128 ft | 439 kts | 220° |
| 2026-04-30 13:52 | -25.50429 | -48.01626 | 34130 ft | 439 kts | 220° |
| 2026-04-30 13:52 | -25.55531 | -48.05254 | 34133 ft | 439 kts | 220° |
| 2026-04-30 13:53 | -25.60533 | -48.08816 | 34128 ft | 439 kts | 220° |
| 2026-04-30 13:53 | -25.65651 | -48.12460 | 34128 ft | 439 kts | 220° |
| 2026-04-30 13:54 | -25.70789 | -48.16114 | 34128 ft | 439 kts | 220° |
| 2026-04-30 13:54 | -25.75942 | -48.19784 | 34128 ft | 439 kts | 220° |
| 2026-04-30 13:55 | -25.81066 | -48.23437 | 34128 ft | 439 kts | 220° |
| 2026-04-30 13:55 | -25.86194 | -48.27097 | 34128 ft | 439 kts | 220° |
| 2026-04-30 13:56 | -25.91322 | -48.30761 | 34128 ft | 439 kts | 220° |
| 2026-04-30 13:56 | -25.96480 | -48.34449 | 34128 ft | 439 kts | 220° |
| 2026-04-30 13:57 | -26.01611 | -48.38123 | 34128 ft | 439 kts | 220° |
| 2026-04-30 13:57 | -26.06759 | -48.41812 | 34128 ft | 438 kts | 220° |
| 2026-04-30 13:58 | -26.14091 | -48.47075 | 34128 ft | 438 kts | 220° |
| 2026-04-30 13:59 | -26.19194 | -48.50740 | 34128 ft | 438 kts | 220° |
| 2026-04-30 13:59 | -26.24032 | -48.54219 | 34128 ft | 438 kts | 220° |
| 2026-04-30 14:00 | -26.29030 | -48.57819 | 34128 ft | 438 kts | 220° |
| 2026-04-30 14:00 | -26.36710 | -48.63361 | 34128 ft | 438 kts | 220° |
| 2026-04-30 14:01 | -26.41632 | -48.66917 | 34128 ft | 438 kts | 220° |
| 2026-04-30 14:01 | -26.46759 | -48.70626 | 34128 ft | 438 kts | 220° |
| 2026-04-30 14:02 | -26.51834 | -48.74352 | 34128 ft | 437 kts | 221° |
| 2026-04-30 14:02 | -26.56909 | -48.78102 | 34128 ft | 437 kts | 221° |
| 2026-04-30 14:03 | -26.61970 | -48.81836 | 34128 ft | 438 kts | 221° |
| 2026-04-30 14:03 | -26.67022 | -48.85568 | 34128 ft | 438 kts | 221° |
| 2026-04-30 14:04 | -26.72116 | -48.89290 | 34128 ft | 438 kts | 220° |
| 2026-04-30 14:04 | -26.77229 | -48.93019 | 34128 ft | 438 kts | 220° |
| 2026-04-30 14:05 | -26.82318 | -48.96742 | 34128 ft | 438 kts | 221° |
| 2026-04-30 14:05 | -26.87412 | -49.00470 | 34128 ft | 438 kts | 221° |
| 2026-04-30 14:06 | -26.95029 | -49.06051 | 34128 ft | 435 kts | 223° |
| 2026-04-30 14:07 | -27.02220 | -49.11326 | 34128 ft | 427 kts | 224° |
| 2026-04-30 14:08 | -27.09614 | -49.16765 | 34128 ft | 420 kts | 225° |
| 2026-04-30 14:08 | -27.16894 | -49.22130 | 34128 ft | 419 kts | 225° |
| 2026-04-30 14:09 | -27.21754 | -49.25716 | 34128 ft | 419 kts | 225° |
| 2026-04-30 14:10 | -27.29068 | -49.31119 | 34128 ft | 420 kts | 225° |
| 2026-04-30 14:10 | -27.33951 | -49.34730 | 34128 ft | 420 kts | 225° |
| 2026-04-30 14:11 | -27.38816 | -49.38332 | 34128 ft | 420 kts | 225° |
| 2026-04-30 14:11 | -27.43655 | -49.41918 | 34128 ft | 420 kts | 225° |
| 2026-04-30 14:12 | -27.48529 | -49.45534 | 34128 ft | 420 kts | 225° |
| 2026-04-30 14:12 | -27.53346 | -49.49116 | 34114 ft | 420 kts | 225° |
| 2026-04-30 14:13 | -27.57835 | -49.53095 | 34101 ft | 405 kts | 233° |
| 2026-04-30 14:13 | -27.61971 | -49.57276 | 34101 ft | 407 kts | 232° |
| 2026-04-30 14:14 | -27.66211 | -49.61486 | 34101 ft | 407 kts | 232° |
| 2026-04-30 14:14 | -27.70443 | -49.65729 | 34101 ft | 407 kts | 232° |
| 2026-04-30 14:15 | -27.74673 | -49.69976 | 34101 ft | 407 kts | 232° |
| 2026-04-30 14:15 | -27.78883 | -49.74211 | 34101 ft | 406 kts | 232° |
| 2026-04-30 14:16 | -27.83089 | -49.78450 | 34101 ft | 407 kts | 232° |
| 2026-04-30 14:16 | -27.87299 | -49.82698 | 34101 ft | 406 kts | 232° |
| 2026-04-30 14:17 | -27.91500 | -49.86941 | 34101 ft | 407 kts | 232° |
| 2026-04-30 14:17 | -27.95710 | -49.91200 | 34101 ft | 407 kts | 232° |
| 2026-04-30 14:18 | -27.99914 | -49.95456 | 34101 ft | 407 kts | 232° |
| 2026-04-30 14:18 | -28.06206 | -50.01836 | 34101 ft | 407 kts | 233° |
| 2026-04-30 14:19 | -28.12416 | -50.08143 | 34101 ft | 407 kts | 233° |
| 2026-04-30 14:20 | -28.16652 | -50.12450 | 34101 ft | 407 kts | 233° |
| 2026-04-30 14:20 | -28.22979 | -50.18894 | 34102 ft | 407 kts | 233° |
| 2026-04-30 14:21 | -28.26970 | -50.22963 | 34105 ft | 407 kts | 233° |
| 2026-04-30 14:22 | -28.33265 | -50.29391 | 34115 ft | 407 kts | 233° |
| 2026-04-30 14:22 | -28.39576 | -50.35845 | 34122 ft | 407 kts | 233° |
| 2026-04-30 14:23 | -28.47900 | -50.44376 | 34128 ft | 407 kts | 233° |
| 2026-04-30 14:24 | -28.54202 | -50.50847 | 34128 ft | 407 kts | 233° |
| 2026-04-30 14:25 | -28.62576 | -50.59462 | 34128 ft | 407 kts | 233° |
| 2026-04-30 14:26 | -28.68867 | -50.65948 | 34128 ft | 407 kts | 233° |
| 2026-04-30 14:27 | -28.75143 | -50.72427 | 34128 ft | 407 kts | 233° |
| 2026-04-30 14:27 | -28.79308 | -50.76733 | 34128 ft | 406 kts | 233° |
| 2026-04-30 14:28 | -28.85567 | -50.83213 | 34128 ft | 405 kts | 233° |
| 2026-04-30 14:28 | -28.89653 | -50.87452 | 34128 ft | 405 kts | 233° |
| 2026-04-30 14:29 | -28.97304 | -50.95401 | 34128 ft | 410 kts | 233° |
| 2026-04-30 14:31 | -29.08696 | -51.07265 | 34128 ft | 420 kts | 233° |
| 2026-04-30 14:31 | -29.15144 | -51.13992 | 34128 ft | 418 kts | 233° |
| 2026-04-30 14:32 | -29.21133 | -51.21052 | 34128 ft | 406 kts | 242° |
| 2026-04-30 14:33 | -29.24600 | -51.26141 | 34128 ft | 406 kts | 241° |
| 2026-04-30 14:33 | -29.29846 | -51.33771 | 34128 ft | 406 kts | 242° |
| 2026-04-30 14:34 | -29.33302 | -51.38867 | 34128 ft | 406 kts | 242° |
| 2026-04-30 14:34 | -29.36755 | -51.43977 | 34128 ft | 407 kts | 242° |
| 2026-04-30 14:35 | -29.41914 | -51.51636 | 34128 ft | 406 kts | 242° |
| 2026-04-30 14:36 | -29.45357 | -51.56760 | 34128 ft | 407 kts | 242° |
| 2026-04-30 14:36 | -29.48808 | -51.61902 | 34128 ft | 406 kts | 242° |
| 2026-04-30 14:37 | -29.52253 | -51.67043 | 34128 ft | 406 kts | 243° |
| 2026-04-30 14:37 | -29.55670 | -51.72150 | 34128 ft | 406 kts | 243° |
| 2026-04-30 14:38 | -29.59120 | -51.77311 | 34128 ft | 405 kts | 243° |
| 2026-04-30 14:38 | -29.62526 | -51.82417 | 34128 ft | 407 kts | 243° |
| 2026-04-30 14:39 | -29.65970 | -51.87580 | 34128 ft | 405 kts | 243° |
| 2026-04-30 14:39 | -29.69383 | -51.92707 | 34128 ft | 405 kts | 243° |
| 2026-04-30 14:40 | -29.74521 | -52.00438 | 34128 ft | 406 kts | 243° |
| 2026-04-30 14:40 | -29.77934 | -52.05580 | 34128 ft | 405 kts | 243° |
| 2026-04-30 14:41 | -29.81331 | -52.10706 | 34128 ft | 406 kts | 243° |
| 2026-04-30 14:41 | -29.84755 | -52.15878 | 34128 ft | 406 kts | 243° |
| 2026-04-30 14:42 | -29.88176 | -52.21053 | 34128 ft | 406 kts | 243° |
| 2026-04-30 14:42 | -29.91512 | -52.26104 | 34127 ft | 405 kts | 243° |
| 2026-04-30 14:43 | -29.94784 | -52.31061 | 34128 ft | 403 kts | 243° |
| 2026-04-30 14:43 | -29.98003 | -52.35953 | 34128 ft | 405 kts | 243° |
| 2026-04-30 14:44 | -30.01417 | -52.41142 | 34128 ft | 405 kts | 243° |
| 2026-04-30 14:44 | -30.04816 | -52.46316 | 34128 ft | 405 kts | 243° |
| 2026-04-30 14:45 | -30.08214 | -52.51494 | 34128 ft | 405 kts | 243° |
| 2026-04-30 14:45 | -30.11604 | -52.56667 | 34128 ft | 405 kts | 243° |
| 2026-04-30 14:46 | -30.14992 | -52.61842 | 34128 ft | 405 kts | 243° |
| 2026-04-30 14:46 | -30.18381 | -52.67026 | 34127 ft | 405 kts | 243° |
| 2026-04-30 14:47 | -30.21769 | -52.72216 | 34128 ft | 405 kts | 243° |
| 2026-04-30 14:47 | -30.25155 | -52.77409 | 34128 ft | 404 kts | 243° |
| 2026-04-30 14:48 | -30.28539 | -52.82605 | 34128 ft | 404 kts | 243° |
| 2026-04-30 14:48 | -30.31903 | -52.87781 | 34128 ft | 405 kts | 243° |
| 2026-04-30 14:49 | -30.35290 | -52.92992 | 34128 ft | 404 kts | 243° |
| 2026-04-30 14:49 | -30.38653 | -52.98177 | 34128 ft | 403 kts | 243° |
| 2026-04-30 14:50 | -30.43653 | -53.05900 | 34128 ft | 404 kts | 242° |
| 2026-04-30 14:51 | -30.48698 | -53.13704 | 34128 ft | 404 kts | 242° |
| 2026-04-30 14:52 | -30.53746 | -53.21530 | 34128 ft | 404 kts | 242° |
| 2026-04-30 14:52 | -30.58774 | -53.29339 | 34128 ft | 405 kts | 242° |
| 2026-04-30 14:53 | -30.63816 | -53.37186 | 34128 ft | 404 kts | 242° |
| 2026-04-30 14:54 | -30.70505 | -53.47621 | 34128 ft | 405 kts | 242° |
| 2026-04-30 14:55 | -30.75531 | -53.55477 | 34128 ft | 404 kts | 242° |
| 2026-04-30 14:56 | -30.82232 | -53.65980 | 34128 ft | 405 kts | 243° |
| 2026-04-30 14:57 | -30.87259 | -53.73874 | 34128 ft | 404 kts | 243° |
| 2026-04-30 14:58 | -30.93888 | -53.84304 | 34128 ft | 397 kts | 243° |
| 2026-04-30 14:58 | -30.98767 | -53.92004 | 34128 ft | 392 kts | 243° |
| 2026-04-30 15:00 | -31.06764 | -54.04658 | 34128 ft | 386 kts | 243° |
| 2026-04-30 15:01 | -31.13127 | -54.14757 | 34128 ft | 387 kts | 243° |
| 2026-04-30 15:01 | -31.17891 | -54.22334 | 34128 ft | 387 kts | 243° |
| 2026-04-30 15:02 | -31.21064 | -54.27387 | 34128 ft | 387 kts | 243° |
| 2026-04-30 15:03 | -31.29015 | -54.40081 | 34128 ft | 387 kts | 243° |
| 2026-04-30 15:04 | -31.36952 | -54.52793 | 34128 ft | 387 kts | 243° |
| 2026-04-30 15:06 | -31.45144 | -54.65283 | 34129 ft | 399 kts | 235° |
| 2026-04-30 15:07 | -31.53271 | -54.74136 | 34126 ft | 400 kts | 233° |
| 2026-04-30 15:08 | -31.61381 | -54.82931 | 34116 ft | 400 kts | 233° |
| 2026-04-30 15:09 | -31.71588 | -54.93984 | 34108 ft | 401 kts | 233° |
| 2026-04-30 15:10 | -31.79780 | -55.02871 | 34115 ft | 401 kts | 233° |
| 2026-04-30 15:11 | -31.91866 | -55.16020 | 34106 ft | 402 kts | 233° |
| 2026-04-30 15:13 | -32.02083 | -55.27171 | 34101 ft | 402 kts | 233° |
| 2026-04-30 15:14 | -32.16375 | -55.42832 | 34101 ft | 401 kts | 233° |
| 2026-04-30 15:17 | -32.34638 | -55.62946 | 34079 ft | 401 kts | 233° |
| 2026-04-30 15:19 | -32.50957 | -55.81018 | 34074 ft | 401 kts | 234° |